?

Log in

No account? Create an account

Previous | Next

Hm, someone from the Copyright Section of the University Office of Technology Management wants me to call him about some software I wrote eight years ago which the University sold the rights to.

I'm hoping it's some boring, bureaucracy-laden issue.

On a much brighter note:

KCMI 141130Z 141212 28008KT P6SM SKC
   TEMPO 1213 4SM BR
  FM1500 32013KT P6SM SCT040
   TEMPO 1721 BKN040

  FM0000 VRB03KT P6SM SKC=

Now that's more like real flying weather! I'm supposed to fly at 1pm tomorrow. Zero-Four-Hotel is in my memory like an old friend.

On a gloomier note, I'm a little worried about a certain friend of mine who hasn't been online, like, at all, and appears to be freaking out. I'm thinking about you, okay?

Tags:

Comments

planegirl
May. 14th, 2002 11:53 am (UTC)
Zero Four Hotel? That's funny, I spent all weekend in a certain Four Zero Hotel. Happy flying.
Today was wind calm, vis 10, broken at 4400. Nice all over the country I guess!!
szasz
May. 14th, 2002 12:35 pm (UTC)

Yup, Piper Archer-II N6004H. Too bad it was nowhere in sight when I got to the airport. I'm wondering if my flight instructor jumped in it and went for a spin when I wasn't there right at 1. Then again, I was only five minutes late, so why would he do that. Still, I'm irritated.

Profile

14L
szasz
Charley

Latest Month

July 2013
S M T W T F S
 123456
78910111213
14151617181920
21222324252627
28293031